sensor_id;sensor_type;location;lat;lon;timestamp;P1;durP1;ratioP1;P2;durP2;ratioP2
32321;SDS011;61553;48.994;8.940;2022-11-20T00:00:52;21.35;;;11.23;;
32321;SDS011;61553;48.994;8.940;2022-11-20T00:03:18;19.17;;;11.13;;
32321;SDS011;61553;48.994;8.940;2022-11-20T00:05:44;22.02;;;11.82;;
32321;SDS011;61553;48.994;8.940;2022-11-20T00:08:10;17.73;;;9.82;;
32321;SDS011;61553;48.994;8.940;2022-11-20T00:10:36;29.70;;;14.55;;
32321;SDS011;61553;48.994;8.940;2022-11-20T00:13:02;25.98;;;13.35;;
32321;SDS011;61553;48.994;8.940;2022-11-20T00:15:29;34.50;;;17.33;;
32321;SDS011;61553;48.994;8.940;2022-11-20T00:17:54;42.00;;;23.73;;
32321;SDS011;61553;48.994;8.940;2022-11-20T00:20:20;25.65;;;13.02;;
32321;SDS011;61553;48.994;8.940;2022-11-20T00:22:46;21.77;;;10.48;;
32321;SDS011;61553;48.994;8.940;2022-11-20T00:25:12;31.65;;;18.00;;
32321;SDS011;61553;48.994;8.940;2022-11-20T00:27:38;21.27;;;11.32;;
32321;SDS011;61553;48.994;8.940;2022-11-20T00:30:04;19.85;;;10.13;;
32321;SDS011;61553;48.994;8.940;2022-11-20T00:32:31;19.95;;;10.07;;
32321;SDS011;61553;48.994;8.940;2022-11-20T00:34:56;17.98;;;9.88;;
32321;SDS011;61553;48.994;8.940;2022-11-20T00:37:22;18.48;;;10.70;;
32321;SDS011;61553;48.994;8.940;2022-11-20T00:39:48;20.98;;;10.52;;
32321;SDS011;61553;48.994;8.940;2022-11-20T00:42:13;33.25;;;16.73;;
32321;SDS011;61553;48.994;8.940;2022-11-20T00:44:39;27.02;;;14.50;;
32321;SDS011;61553;48.994;8.940;2022-11-20T00:47:04;26.42;;;12.57;;
32321;SDS011;61553;48.994;8.940;2022-11-20T00:49:30;23.27;;;11.10;;
32321;SDS011;61553;48.994;8.940;2022-11-20T00:51:56;25.45;;;11.77;;
32321;SDS011;61553;48.994;8.940;2022-11-20T00:54:21;19.63;;;11.43;;
32321;SDS011;61553;48.994;8.940;2022-11-20T00:56:47;22.95;;;12.05;;
32321;SDS011;61553;48.994;8.940;2022-11-20T00:59:13;23.55;;;11.80;;
32321;SDS011;61553;48.994;8.940;2022-11-20T01:01:38;24.52;;;12.35;;
32321;SDS011;61553;48.994;8.940;2022-11-20T01:04:04;23.40;;;12.35;;
32321;SDS011;61553;48.994;8.940;2022-11-20T01:06:31;26.17;;;13.77;;
32321;SDS011;61553;48.994;8.940;2022-11-20T01:08:58;25.40;;;12.18;;
32321;SDS011;61553;48.994;8.940;2022-11-20T01:11:27;25.13;;;11.90;;
32321;SDS011;61553;48.994;8.940;2022-11-20T01:13:54;22.17;;;11.75;;
32321;SDS011;61553;48.994;8.940;2022-11-20T01:16:22;22.90;;;12.52;;
32321;SDS011;61553;48.994;8.940;2022-11-20T01:18:50;23.50;;;12.10;;
32321;SDS011;61553;48.994;8.940;2022-11-20T01:21:19;25.15;;;12.13;;
32321;SDS011;61553;48.994;8.940;2022-11-20T01:23:46;22.27;;;11.80;;
32321;SDS011;61553;48.994;8.940;2022-11-20T01:26:14;24.95;;;12.25;;
32321;SDS011;61553;48.994;8.940;2022-11-20T01:28:43;22.50;;;11.38;;
32321;SDS011;61553;48.994;8.940;2022-11-20T01:33:42;25.88;;;11.60;;
32321;SDS011;61553;48.994;8.940;2022-11-20T01:36:10;25.33;;;11.82;;
32321;SDS011;61553;48.994;8.940;2022-11-20T01:38:37;31.33;;;14.63;;
32321;SDS011;61553;48.994;8.940;2022-11-20T01:41:02;26.75;;;13.43;;
32321;SDS011;61553;48.994;8.940;2022-11-20T01:43:29;23.25;;;12.13;;
32321;SDS011;61553;48.994;8.940;2022-11-20T01:48:33;28.42;;;13.57;;
32321;SDS011;61553;48.994;8.940;2022-11-20T01:51:12;28.60;;;13.32;;
32321;SDS011;61553;48.994;8.940;2022-11-20T01:53:47;27.80;;;13.50;;
32321;SDS011;61553;48.994;8.940;2022-11-20T01:56:15;28.58;;;12.85;;
32321;SDS011;61553;48.994;8.940;2022-11-20T01:58:42;26.88;;;14.02;;
32321;SDS011;61553;48.994;8.940;2022-11-20T02:01:16;28.33;;;14.10;;
32321;SDS011;61553;48.994;8.940;2022-11-20T02:03:42;26.33;;;13.30;;
32321;SDS011;61553;48.994;8.940;2022-11-20T02:08:39;29.10;;;13.70;;
32321;SDS011;61553;48.994;8.940;2022-11-20T02:11:05;23.77;;;12.48;;
32321;SDS011;61553;48.994;8.940;2022-11-20T02:13:32;31.83;;;16.42;;
32321;SDS011;61553;48.994;8.940;2022-11-20T02:18:41;39.63;;;21.95;;
32321;SDS011;61553;48.994;8.940;2022-11-20T02:21:11;48.88;;;25.73;;
32321;SDS011;61553;48.994;8.940;2022-11-20T02:23:59;41.05;;;24.20;;
32321;SDS011;61553;48.994;8.940;2022-11-20T02:26:30;42.05;;;23.33;;
32321;SDS011;61553;48.994;8.940;2022-11-20T02:28:58;31.33;;;17.77;;
32321;SDS011;61553;48.994;8.940;2022-11-20T02:31:25;29.33;;;15.63;;
32321;SDS011;61553;48.994;8.940;2022-11-20T02:33:55;25.08;;;13.65;;
32321;SDS011;61553;48.994;8.940;2022-11-20T02:36:24;21.45;;;12.10;;
32321;SDS011;61553;48.994;8.940;2022-11-20T02:38:52;20.45;;;11.10;;
32321;SDS011;61553;48.994;8.940;2022-11-20T02:41:18;18.65;;;11.13;;
32321;SDS011;61553;48.994;8.940;2022-11-20T02:43:44;18.42;;;9.82;;
32321;SDS011;61553;48.994;8.940;2022-11-20T02:46:10;16.65;;;9.32;;
32321;SDS011;61553;48.994;8.940;2022-11-20T02:48:36;18.13;;;9.60;;
32321;SDS011;61553;48.994;8.940;2022-11-20T02:51:01;14.88;;;9.40;;
32321;SDS011;61553;48.994;8.940;2022-11-20T02:53:27;15.07;;;9.45;;
32321;SDS011;61553;48.994;8.940;2022-11-20T02:55:53;13.18;;;8.93;;
32321;SDS011;61553;48.994;8.940;2022-11-20T02:58:19;15.27;;;9.23;;
32321;SDS011;61553;48.994;8.940;2022-11-20T03:00:44;14.63;;;8.55;;
32321;SDS011;61553;48.994;8.940;2022-11-20T03:03:10;14.15;;;8.30;;
32321;SDS011;61553;48.994;8.940;2022-11-20T03:05:36;17.08;;;7.65;;
32321;SDS011;61553;48.994;8.940;2022-11-20T03:08:01;13.30;;;8.25;;
32321;SDS011;61553;48.994;8.940;2022-11-20T03:10:27;13.25;;;7.57;;
32321;SDS011;61553;48.994;8.940;2022-11-20T03:12:56;14.38;;;8.55;;
32321;SDS011;61553;48.994;8.940;2022-11-20T03:15:22;13.30;;;7.50;;
32321;SDS011;61553;48.994;8.940;2022-11-20T03:17:48;11.00;;;6.78;;
32321;SDS011;61553;48.994;8.940;2022-11-20T03:20:14;13.07;;;7.38;;
32321;SDS011;61553;48.994;8.940;2022-11-20T03:22:39;12.70;;;6.50;;
32321;SDS011;61553;48.994;8.940;2022-11-20T03:25:05;11.63;;;6.03;;
32321;SDS011;61553;48.994;8.940;2022-11-20T03:27:34;9.50;;;5.60;;
32321;SDS011;61553;48.994;8.940;2022-11-20T03:30:00;10.85;;;6.20;;
32321;SDS011;61553;48.994;8.940;2022-11-20T03:32:26;8.60;;;5.57;;
32321;SDS011;61553;48.994;8.940;2022-11-20T03:34:51;10.88;;;6.10;;
32321;SDS011;61553;48.994;8.940;2022-11-20T03:37:17;10.32;;;5.93;;
32321;SDS011;61553;48.994;8.940;2022-11-20T03:39:43;10.45;;;5.70;;
32321;SDS011;61553;48.994;8.940;2022-11-20T03:42:08;8.90;;;5.45;;
32321;SDS011;61553;48.994;8.940;2022-11-20T03:44:54;8.50;;;5.60;;
32321;SDS011;61553;48.994;8.940;2022-11-20T03:47:20;8.38;;;5.05;;
32321;SDS011;61553;48.994;8.940;2022-11-20T03:49:46;9.07;;;5.85;;
32321;SDS011;61553;48.994;8.940;2022-11-20T03:52:12;10.88;;;5.00;;
32321;SDS011;61553;48.994;8.940;2022-11-20T03:54:38;8.88;;;5.30;;
32321;SDS011;61553;48.994;8.940;2022-11-20T03:57:03;11.55;;;5.70;;
32321;SDS011;61553;48.994;8.940;2022-11-20T03:59:29;9.10;;;5.38;;
32321;SDS011;61553;48.994;8.940;2022-11-20T04:01:54;7.97;;;4.70;;
32321;SDS011;61553;48.994;8.940;2022-11-20T04:04:20;7.35;;;4.93;;
32321;SDS011;61553;48.994;8.940;2022-11-20T04:06:46;8.27;;;5.00;;
32321;SDS011;61553;48.994;8.940;2022-11-20T04:09:12;9.18;;;4.72;;
32321;SDS011;61553;48.994;8.940;2022-11-20T04:11:39;9.23;;;5.25;;
32321;SDS011;61553;48.994;8.940;2022-11-20T04:14:06;10.05;;;4.88;;
32321;SDS011;61553;48.994;8.940;2022-11-20T04:16:37;8.32;;;4.50;;
32321;SDS011;61553;48.994;8.940;2022-11-20T04:19:04;7.13;;;4.70;;
32321;SDS011;61553;48.994;8.940;2022-11-20T04:21:34;11.63;;;4.95;;
32321;SDS011;61553;48.994;8.940;2022-11-20T04:24:00;7.45;;;4.25;;
32321;SDS011;61553;48.994;8.940;2022-11-20T04:26:26;6.40;;;4.00;;
32321;SDS011;61553;48.994;8.940;2022-11-20T04:28:53;9.02;;;4.20;;
32321;SDS011;61553;48.994;8.940;2022-11-20T04:31:19;6.53;;;4.28;;
32321;SDS011;61553;48.994;8.940;2022-11-20T04:33:47;7.80;;;4.18;;
32321;SDS011;61553;48.994;8.940;2022-11-20T04:36:17;10.32;;;4.57;;
32321;SDS011;61553;48.994;8.940;2022-11-20T04:38:43;7.55;;;4.07;;
32321;SDS011;61553;48.994;8.940;2022-11-20T04:41:12;10.32;;;4.57;;
32321;SDS011;61553;48.994;8.940;2022-11-20T04:43:41;6.65;;;3.90;;
32321;SDS011;61553;48.994;8.940;2022-11-20T04:46:06;8.20;;;3.83;;
32321;SDS011;61553;48.994;8.940;2022-11-20T04:48:32;7.68;;;3.92;;
32321;SDS011;61553;48.994;8.940;2022-11-20T04:51:02;5.95;;;3.47;;
32321;SDS011;61553;48.994;8.940;2022-11-20T04:53:29;8.05;;;3.90;;
32321;SDS011;61553;48.994;8.940;2022-11-20T04:55:59;8.75;;;3.78;;
32321;SDS011;61553;48.994;8.940;2022-11-20T04:58:29;6.28;;;3.78;;
32321;SDS011;61553;48.994;8.940;2022-11-20T05:01:09;8.85;;;3.90;;
32321;SDS011;61553;48.994;8.940;2022-11-20T05:03:45;5.82;;;3.70;;
32321;SDS011;61553;48.994;8.940;2022-11-20T05:06:13;6.90;;;3.63;;
32321;SDS011;61553;48.994;8.940;2022-11-20T05:08:40;8.27;;;3.85;;
32321;SDS011;61553;48.994;8.940;2022-11-20T05:11:07;8.10;;;3.38;;
32321;SDS011;61553;48.994;8.940;2022-11-20T05:13:34;8.70;;;4.13;;
32321;SDS011;61553;48.994;8.940;2022-11-20T05:16:04;6.43;;;4.00;;
32321;SDS011;61553;48.994;8.940;2022-11-20T05:18:32;7.40;;;3.65;;
32321;SDS011;61553;48.994;8.940;2022-11-20T05:20:58;6.93;;;3.80;;
32321;SDS011;61553;48.994;8.940;2022-11-20T05:23:24;7.18;;;3.70;;
32321;SDS011;61553;48.994;8.940;2022-11-20T05:25:53;7.05;;;3.53;;
32321;SDS011;61553;48.994;8.940;2022-11-20T05:28:19;7.10;;;3.40;;
32321;SDS011;61553;48.994;8.940;2022-11-20T05:30:45;5.82;;;3.58;;
32321;SDS011;61553;48.994;8.940;2022-11-20T05:33:11;5.63;;;3.22;;
32321;SDS011;61553;48.994;8.940;2022-11-20T05:35:36;6.15;;;3.53;;
32321;SDS011;61553;48.994;8.940;2022-11-20T05:38:02;7.35;;;2.90;;
32321;SDS011;61553;48.994;8.940;2022-11-20T05:40:28;5.93;;;3.38;;
32321;SDS011;61553;48.994;8.940;2022-11-20T05:42:53;6.78;;;3.05;;
32321;SDS011;61553;48.994;8.940;2022-11-20T05:45:19;6.07;;;3.10;;
32321;SDS011;61553;48.994;8.940;2022-11-20T05:47:44;5.97;;;3.20;;
32321;SDS011;61553;48.994;8.940;2022-11-20T05:50:10;7.43;;;3.22;;
32321;SDS011;61553;48.994;8.940;2022-11-20T05:52:36;5.55;;;2.78;;
32321;SDS011;61553;48.994;8.940;2022-11-20T05:55:01;5.82;;;2.92;;
32321;SDS011;61553;48.994;8.940;2022-11-20T05:57:27;8.82;;;3.40;;
32321;SDS011;61553;48.994;8.940;2022-11-20T05:59:53;6.63;;;2.80;;
32321;SDS011;61553;48.994;8.940;2022-11-20T06:02:18;7.45;;;3.03;;
32321;SDS011;61553;48.994;8.940;2022-11-20T06:04:44;4.53;;;2.50;;
32321;SDS011;61553;48.994;8.940;2022-11-20T06:07:10;5.45;;;2.70;;
32321;SDS011;61553;48.994;8.940;2022-11-20T06:09:35;4.65;;;2.60;;
32321;SDS011;61553;48.994;8.940;2022-11-20T06:12:01;4.57;;;2.30;;
32321;SDS011;61553;48.994;8.940;2022-11-20T06:14:27;4.57;;;2.70;;
32321;SDS011;61553;48.994;8.940;2022-11-20T06:16:52;4.13;;;2.20;;
32321;SDS011;61553;48.994;8.940;2022-11-20T06:19:18;4.07;;;2.47;;
32321;SDS011;61553;48.994;8.940;2022-11-20T06:21:43;6.38;;;2.65;;
32321;SDS011;61553;48.994;8.940;2022-11-20T06:24:10;5.10;;;2.20;;
32321;SDS011;61553;48.994;8.940;2022-11-20T06:26:35;8.10;;;2.42;;
32321;SDS011;61553;48.994;8.940;2022-11-20T06:29:01;5.88;;;2.10;;
32321;SDS011;61553;48.994;8.940;2022-11-20T06:31:27;3.38;;;1.80;;
32321;SDS011;61553;48.994;8.940;2022-11-20T06:33:53;3.58;;;1.60;;
32321;SDS011;61553;48.994;8.940;2022-11-20T06:36:20;4.38;;;2.08;;
32321;SDS011;61553;48.994;8.940;2022-11-20T06:38:47;3.45;;;1.67;;
32321;SDS011;61553;48.994;8.940;2022-11-20T06:41:14;5.55;;;2.15;;
32321;SDS011;61553;48.994;8.940;2022-11-20T06:43:44;3.95;;;1.98;;
32321;SDS011;61553;48.994;8.940;2022-11-20T06:46:10;5.32;;;1.70;;
32321;SDS011;61553;48.994;8.940;2022-11-20T06:48:37;4.65;;;2.10;;
32321;SDS011;61553;48.994;8.940;2022-11-20T06:51:04;3.90;;;1.60;;
32321;SDS011;61553;48.994;8.940;2022-11-20T06:53:31;4.22;;;1.90;;
32321;SDS011;61553;48.994;8.940;2022-11-20T06:55:57;4.10;;;1.85;;
32321;SDS011;61553;48.994;8.940;2022-11-20T06:58:23;3.55;;;1.60;;
32321;SDS011;61553;48.994;8.940;2022-11-20T07:00:51;3.45;;;1.80;;
32321;SDS011;61553;48.994;8.940;2022-11-20T07:03:16;9.52;;;2.13;;
32321;SDS011;61553;48.994;8.940;2022-11-20T07:05:42;4.60;;;1.90;;
32321;SDS011;61553;48.994;8.940;2022-11-20T07:08:09;2.83;;;1.50;;
32321;SDS011;61553;48.994;8.940;2022-11-20T07:10:34;4.22;;;1.60;;
32321;SDS011;61553;48.994;8.940;2022-11-20T07:13:00;4.38;;;1.70;;
32321;SDS011;61553;48.994;8.940;2022-11-20T07:15:26;5.35;;;2.10;;
32321;SDS011;61553;48.994;8.940;2022-11-20T07:17:52;3.42;;;1.90;;
32321;SDS011;61553;48.994;8.940;2022-11-20T07:20:17;4.57;;;2.50;;
32321;SDS011;61553;48.994;8.940;2022-11-20T07:22:43;8.90;;;2.25;;
32321;SDS011;61553;48.994;8.940;2022-11-20T07:25:09;4.70;;;1.52;;
32321;SDS011;61553;48.994;8.940;2022-11-20T07:27:35;5.95;;;2.10;;
32321;SDS011;61553;48.994;8.940;2022-11-20T07:30:01;5.93;;;1.92;;
32321;SDS011;61553;48.994;8.940;2022-11-20T07:32:28;3.88;;;1.90;;
32321;SDS011;61553;48.994;8.940;2022-11-20T07:34:54;4.40;;;1.80;;
32321;SDS011;61553;48.994;8.940;2022-11-20T07:37:20;6.07;;;1.50;;
32321;SDS011;61553;48.994;8.940;2022-11-20T07:39:46;2.97;;;1.52;;
32321;SDS011;61553;48.994;8.940;2022-11-20T07:42:11;6.90;;;3.17;;
32321;SDS011;61553;48.994;8.940;2022-11-20T07:44:37;3.50;;;1.30;;
32321;SDS011;61553;48.994;8.940;2022-11-20T07:47:03;2.72;;;1.40;;
32321;SDS011;61553;48.994;8.940;2022-11-20T07:49:29;4.75;;;1.63;;
32321;SDS011;61553;48.994;8.940;2022-11-20T07:51:55;3.58;;;1.40;;
32321;SDS011;61553;48.994;8.940;2022-11-20T07:54:21;3.30;;;1.55;;
32321;SDS011;61553;48.994;8.940;2022-11-20T07:56:50;4.85;;;1.83;;
32321;SDS011;61553;48.994;8.940;2022-11-20T07:59:16;4.85;;;1.52;;
32321;SDS011;61553;48.994;8.940;2022-11-20T08:01:42;3.13;;;1.30;;
32321;SDS011;61553;48.994;8.940;2022-11-20T08:04:08;3.15;;;1.58;;
32321;SDS011;61553;48.994;8.940;2022-11-20T08:06:34;7.53;;;2.58;;
32321;SDS011;61553;48.994;8.940;2022-11-20T08:09:00;2.97;;;1.40;;
32321;SDS011;61553;48.994;8.940;2022-11-20T08:11:26;3.13;;;1.63;;
32321;SDS011;61553;48.994;8.940;2022-11-20T08:14:10;4.50;;;1.45;;
32321;SDS011;61553;48.994;8.940;2022-11-20T08:16:40;3.50;;;1.40;;
32321;SDS011;61553;48.994;8.940;2022-11-20T08:19:10;9.10;;;4.13;;
32321;SDS011;61553;48.994;8.940;2022-11-20T08:21:37;22.02;;;7.70;;
32321;SDS011;61553;48.994;8.940;2022-11-20T08:24:02;5.60;;;2.00;;
32321;SDS011;61553;48.994;8.940;2022-11-20T08:26:28;7.35;;;3.05;;
32321;SDS011;61553;48.994;8.940;2022-11-20T08:28:54;8.07;;;3.72;;
32321;SDS011;61553;48.994;8.940;2022-11-20T08:31:21;3.67;;;1.60;;
32321;SDS011;61553;48.994;8.940;2022-11-20T08:33:47;4.43;;;1.50;;
32321;SDS011;61553;48.994;8.940;2022-11-20T08:36:12;3.67;;;1.60;;
32321;SDS011;61553;48.994;8.940;2022-11-20T08:38:38;5.18;;;1.83;;
32321;SDS011;61553;48.994;8.940;2022-11-20T08:41:04;3.80;;;2.00;;
32321;SDS011;61553;48.994;8.940;2022-11-20T08:43:49;5.93;;;1.70;;
32321;SDS011;61553;48.994;8.940;2022-11-20T08:46:15;5.47;;;2.10;;
32321;SDS011;61553;48.994;8.940;2022-11-20T08:48:41;4.72;;;1.83;;
32321;SDS011;61553;48.994;8.940;2022-11-20T08:51:08;4.38;;;1.80;;
32321;SDS011;61553;48.994;8.940;2022-11-20T08:53:34;4.28;;;1.90;;
32321;SDS011;61553;48.994;8.940;2022-11-20T08:55:59;4.35;;;1.92;;
32321;SDS011;61553;48.994;8.940;2022-11-20T08:58:25;8.32;;;3.60;;
32321;SDS011;61553;48.994;8.940;2022-11-20T09:00:51;4.28;;;2.35;;
32321;SDS011;61553;48.994;8.940;2022-11-20T09:03:18;3.83;;;1.92;;
32321;SDS011;61553;48.994;8.940;2022-11-20T09:05:44;6.40;;;3.60;;
32321;SDS011;61553;48.994;8.940;2022-11-20T09:08:09;4.03;;;2.17;;
32321;SDS011;61553;48.994;8.940;2022-11-20T09:10:35;4.55;;;2.20;;
32321;SDS011;61553;48.994;8.940;2022-11-20T09:13:01;4.88;;;2.20;;
32321;SDS011;61553;48.994;8.940;2022-11-20T09:15:27;3.88;;;2.28;;
32321;SDS011;61553;48.994;8.940;2022-11-20T09:17:57;4.53;;;2.30;;
32321;SDS011;61553;48.994;8.940;2022-11-20T09:20:25;5.13;;;2.53;;
32321;SDS011;61553;48.994;8.940;2022-11-20T09:22:51;6.35;;;2.42;;
32321;SDS011;61553;48.994;8.940;2022-11-20T09:25:17;4.38;;;2.45;;
32321;SDS011;61553;48.994;8.940;2022-11-20T09:27:43;5.82;;;3.35;;
32321;SDS011;61553;48.994;8.940;2022-11-20T09:30:11;5.97;;;3.55;;
32321;SDS011;61553;48.994;8.940;2022-11-20T09:32:40;5.95;;;3.22;;
32321;SDS011;61553;48.994;8.940;2022-11-20T09:35:07;6.35;;;4.72;;
32321;SDS011;61553;48.994;8.940;2022-11-20T09:37:33;6.05;;;3.30;;
32321;SDS011;61553;48.994;8.940;2022-11-20T09:39:59;6.10;;;3.20;;
32321;SDS011;61553;48.994;8.940;2022-11-20T09:47:58;16.63;;;7.15;;
32321;SDS011;61553;48.994;8.940;2022-11-20T09:56:17;9.73;;;5.10;;
32321;SDS011;61553;48.994;8.940;2022-11-20T09:58:45;20.98;;;8.88;;
32321;SDS011;61553;48.994;8.940;2022-11-20T10:01:16;17.63;;;7.70;;
32321;SDS011;61553;48.994;8.940;2022-11-20T10:03:46;9.82;;;3.83;;
32321;SDS011;61553;48.994;8.940;2022-11-20T10:06:17;10.07;;;4.13;;
32321;SDS011;61553;48.994;8.940;2022-11-20T10:23:00;4.85;;;2.72;;
32321;SDS011;61553;48.994;8.940;2022-11-20T10:25:38;4.57;;;2.63;;
32321;SDS011;61553;48.994;8.940;2022-11-20T10:31:07;4.22;;;2.47;;
32321;SDS011;61553;48.994;8.940;2022-11-20T10:33:36;3.50;;;2.00;;
32321;SDS011;61553;48.994;8.940;2022-11-20T10:39:06;6.88;;;3.03;;
32321;SDS011;61553;48.994;8.940;2022-11-20T10:41:56;4.43;;;2.80;;
32321;SDS011;61553;48.994;8.940;2022-11-20T10:44:25;7.63;;;3.22;;
32321;SDS011;61553;48.994;8.940;2022-11-20T10:47:15;4.35;;;2.50;;
32321;SDS011;61553;48.994;8.940;2022-11-20T10:49:50;5.70;;;2.90;;
32321;SDS011;61553;48.994;8.940;2022-11-20T10:58:30;8.65;;;4.63;;
32321;SDS011;61553;48.994;8.940;2022-11-20T11:01:20;6.20;;;4.00;;
32321;SDS011;61553;48.994;8.940;2022-11-20T11:03:48;6.55;;;4.18;;
32321;SDS011;61553;48.994;8.940;2022-11-20T11:06:28;8.52;;;4.53;;
32321;SDS011;61553;48.994;8.940;2022-11-20T11:09:02;7.93;;;4.75;;
32321;SDS011;61553;48.994;8.940;2022-11-20T11:11:35;9.90;;;4.60;;
32321;SDS011;61553;48.994;8.940;2022-11-20T11:14:10;7.57;;;4.70;;
32321;SDS011;61553;48.994;8.940;2022-11-20T11:16:51;7.40;;;3.78;;
32321;SDS011;61553;48.994;8.940;2022-11-20T11:19:21;10.52;;;4.07;;
32321;SDS011;61553;48.994;8.940;2022-11-20T11:21:49;8.50;;;3.60;;
32321;SDS011;61553;48.994;8.940;2022-11-20T11:24:25;7.03;;;3.15;;
32321;SDS011;61553;48.994;8.940;2022-11-20T11:26:52;5.45;;;3.20;;
32321;SDS011;61553;48.994;8.940;2022-11-20T11:29:24;7.45;;;3.42;;
32321;SDS011;61553;48.994;8.940;2022-11-20T11:32:02;9.77;;;3.13;;
32321;SDS011;61553;48.994;8.940;2022-11-20T11:34:29;12.88;;;3.25;;
32321;SDS011;61553;48.994;8.940;2022-11-20T11:36:57;7.38;;;3.22;;
32321;SDS011;61553;48.994;8.940;2022-11-20T11:39:24;11.80;;;3.85;;
32321;SDS011;61553;48.994;8.940;2022-11-20T11:41:52;10.80;;;3.97;;
32321;SDS011;61553;48.994;8.940;2022-11-20T11:44:22;8.13;;;2.65;;
32321;SDS011;61553;48.994;8.940;2022-11-20T11:47:18;5.70;;;2.80;;
32321;SDS011;61553;48.994;8.940;2022-11-20T11:52:53;5.45;;;2.72;;
32321;SDS011;61553;48.994;8.940;2022-11-20T12:00:39;7.55;;;2.28;;
32321;SDS011;61553;48.994;8.940;2022-11-20T12:03:14;6.57;;;1.98;;
32321;SDS011;61553;48.994;8.940;2022-11-20T12:08:22;6.88;;;1.92;;
32321;SDS011;61553;48.994;8.940;2022-11-20T12:11:19;5.97;;;1.90;;
32321;SDS011;61553;48.994;8.940;2022-11-20T12:14:01;3.83;;;1.90;;
32321;SDS011;61553;48.994;8.940;2022-11-20T12:16:36;5.32;;;2.20;;
32321;SDS011;61553;48.994;8.940;2022-11-20T12:19:04;6.55;;;2.38;;
32321;SDS011;61553;48.994;8.940;2022-11-20T12:32:42;5.93;;;2.00;;
32321;SDS011;61553;48.994;8.940;2022-11-20T12:43:26;6.43;;;2.00;;
32321;SDS011;61553;48.994;8.940;2022-11-20T12:52:53;4.75;;;1.95;;
32321;SDS011;61553;48.994;8.940;2022-11-20T12:55:16;6.53;;;1.58;;
32321;SDS011;61553;48.994;8.940;2022-11-20T12:57:53;6.57;;;1.52;;
32321;SDS011;61553;48.994;8.940;2022-11-20T13:00:21;8.02;;;2.03;;
32321;SDS011;61553;48.994;8.940;2022-11-20T13:06:13;4.75;;;1.58;;
32321;SDS011;61553;48.994;8.940;2022-11-20T13:08:45;5.38;;;1.80;;
32321;SDS011;61553;48.994;8.940;2022-11-20T13:19:23;3.75;;;1.30;;
32321;SDS011;61553;48.994;8.940;2022-11-20T13:21:50;5.10;;;1.40;;
32321;SDS011;61553;48.994;8.940;2022-11-20T13:26:45;5.55;;;1.30;;
32321;SDS011;61553;48.994;8.940;2022-11-20T13:29:12;4.93;;;1.65;;
32321;SDS011;61553;48.994;8.940;2022-11-20T13:31:43;3.55;;;1.30;;
32321;SDS011;61553;48.994;8.940;2022-11-20T13:34:12;5.03;;;1.48;;
32321;SDS011;61553;48.994;8.940;2022-11-20T13:36:50;6.75;;;1.55;;
32321;SDS011;61553;48.994;8.940;2022-11-20T13:39:27;5.95;;;1.67;;
32321;SDS011;61553;48.994;8.940;2022-11-20T13:41:59;5.85;;;2.38;;
32321;SDS011;61553;48.994;8.940;2022-11-20T13:44:34;7.30;;;1.95;;
32321;SDS011;61553;48.994;8.940;2022-11-20T13:47:22;3.63;;;1.42;;
32321;SDS011;61553;48.994;8.940;2022-11-20T13:49:49;5.50;;;1.65;;
32321;SDS011;61553;48.994;8.940;2022-11-20T14:01:14;4.45;;;1.60;;
32321;SDS011;61553;48.994;8.940;2022-11-20T14:03:44;5.00;;;1.88;;
32321;SDS011;61553;48.994;8.940;2022-11-20T14:06:29;4.25;;;1.73;;
32321;SDS011;61553;48.994;8.940;2022-11-20T14:08:57;5.90;;;1.60;;
32321;SDS011;61553;48.994;8.940;2022-11-20T14:11:25;4.45;;;2.50;;
32321;SDS011;61553;48.994;8.940;2022-11-20T14:14:02;3.85;;;1.80;;
32321;SDS011;61553;48.994;8.940;2022-11-20T14:16:38;6.95;;;2.00;;
32321;SDS011;61553;48.994;8.940;2022-11-20T14:21:49;6.00;;;2.67;;
32321;SDS011;61553;48.994;8.940;2022-11-20T14:24:20;7.85;;;2.05;;
32321;SDS011;61553;48.994;8.940;2022-11-20T14:26:48;6.47;;;2.22;;
32321;SDS011;61553;48.994;8.940;2022-11-20T14:29:16;5.13;;;1.60;;
32321;SDS011;61553;48.994;8.940;2022-11-20T14:31:44;7.45;;;2.00;;
32321;SDS011;61553;48.994;8.940;2022-11-20T14:34:15;5.50;;;2.20;;
32321;SDS011;61553;48.994;8.940;2022-11-20T14:36:51;4.57;;;2.13;;
32321;SDS011;61553;48.994;8.940;2022-11-20T14:39:31;4.63;;;1.60;;
32321;SDS011;61553;48.994;8.940;2022-11-20T14:41:59;13.90;;;4.15;;
32321;SDS011;61553;48.994;8.940;2022-11-20T14:44:30;23.60;;;8.27;;
32321;SDS011;61553;48.994;8.940;2022-11-20T14:46:58;7.03;;;2.28;;
32321;SDS011;61553;48.994;8.940;2022-11-20T14:49:27;11.18;;;4.60;;
32321;SDS011;61553;48.994;8.940;2022-11-20T14:51:58;7.07;;;2.97;;
32321;SDS011;61553;48.994;8.940;2022-11-20T14:54:26;20.30;;;7.72;;
32321;SDS011;61553;48.994;8.940;2022-11-20T14:56:56;14.48;;;5.68;;
32321;SDS011;61553;48.994;8.940;2022-11-20T14:59:33;19.83;;;6.38;;
32321;SDS011;61553;48.994;8.940;2022-11-20T15:02:08;22.50;;;7.57;;
32321;SDS011;61553;48.994;8.940;2022-11-20T15:04:48;8.68;;;3.15;;
32321;SDS011;61553;48.994;8.940;2022-11-20T15:07:25;6.30;;;2.60;;
32321;SDS011;61553;48.994;8.940;2022-11-20T15:10:09;15.05;;;5.07;;
32321;SDS011;61553;48.994;8.940;2022-11-20T15:12:41;8.45;;;2.83;;
32321;SDS011;61553;48.994;8.940;2022-11-20T15:15:14;19.85;;;4.50;;
32321;SDS011;61553;48.994;8.940;2022-11-20T15:17:55;8.65;;;2.28;;
32321;SDS011;61553;48.994;8.940;2022-11-20T15:20:22;12.02;;;4.68;;
32321;SDS011;61553;48.994;8.940;2022-11-20T15:22:51;6.05;;;2.10;;
32321;SDS011;61553;48.994;8.940;2022-11-20T15:25:17;7.18;;;3.33;;
32321;SDS011;61553;48.994;8.940;2022-11-20T15:27:43;6.53;;;3.45;;
32321;SDS011;61553;48.994;8.940;2022-11-20T15:30:19;11.95;;;3.83;;
32321;SDS011;61553;48.994;8.940;2022-11-20T15:32:46;7.53;;;3.47;;
32321;SDS011;61553;48.994;8.940;2022-11-20T15:35:13;6.95;;;2.20;;
32321;SDS011;61553;48.994;8.940;2022-11-20T15:37:39;4.40;;;1.83;;
32321;SDS011;61553;48.994;8.940;2022-11-20T15:40:06;6.35;;;1.77;;
32321;SDS011;61553;48.994;8.940;2022-11-20T15:42:33;6.32;;;1.85;;
32321;SDS011;61553;48.994;8.940;2022-11-20T15:44:59;10.43;;;4.07;;
32321;SDS011;61553;48.994;8.940;2022-11-20T15:47:26;10.38;;;4.97;;
32321;SDS011;61553;48.994;8.940;2022-11-20T15:49:55;15.10;;;7.38;;
32321;SDS011;61553;48.994;8.940;2022-11-20T15:52:20;15.20;;;7.43;;
32321;SDS011;61553;48.994;8.940;2022-11-20T15:54:46;36.90;;;18.15;;
32321;SDS011;61553;48.994;8.940;2022-11-20T15:57:12;30.25;;;15.05;;
32321;SDS011;61553;48.994;8.940;2022-11-20T15:59:38;44.80;;;21.50;;
32321;SDS011;61553;48.994;8.940;2022-11-20T16:02:12;42.20;;;19.70;;
32321;SDS011;61553;48.994;8.940;2022-11-20T16:04:38;32.50;;;18.27;;
32321;SDS011;61553;48.994;8.940;2022-11-20T16:07:04;28.63;;;15.13;;
32321;SDS011;61553;48.994;8.940;2022-11-20T16:09:30;27.17;;;13.68;;
32321;SDS011;61553;48.994;8.940;2022-11-20T16:11:55;20.70;;;11.40;;
32321;SDS011;61553;48.994;8.940;2022-11-20T16:14:24;21.33;;;10.88;;
32321;SDS011;61553;48.994;8.940;2022-11-20T16:17:09;19.35;;;9.52;;
32321;SDS011;61553;48.994;8.940;2022-11-20T16:19:34;20.38;;;8.10;;
32321;SDS011;61553;48.994;8.940;2022-11-20T16:22:00;16.70;;;7.20;;
32321;SDS011;61553;48.994;8.940;2022-11-20T16:24:26;13.07;;;6.93;;
32321;SDS011;61553;48.994;8.940;2022-11-20T16:26:54;11.48;;;5.82;;
32321;SDS011;61553;48.994;8.940;2022-11-20T16:29:20;12.85;;;5.50;;
32321;SDS011;61553;48.994;8.940;2022-11-20T16:31:46;15.88;;;4.72;;
32321;SDS011;61553;48.994;8.940;2022-11-20T16:34:12;10.90;;;3.88;;
32321;SDS011;61553;48.994;8.940;2022-11-20T16:36:40;13.25;;;4.40;;
32321;SDS011;61553;48.994;8.940;2022-11-20T16:39:07;11.52;;;3.97;;